Weather at Rhinelander Oneida County Airport

Public forecast

Using degrees Fahrenheit for public forecast. Weather courtesy of forecast.io.

Current aviation weather report (METAR) for Rhinelander Oneida County Airport

Retrieved 2020/11/26 03:44 UTC (0 seconds ago):

KRHI 260344Z AUTO 00000KT 10SM SCT006 OVC016 01/M01 A2985 RMK AO2 T00061006

Aviation forecast (TAF) for Rhinelander Oneida County Airport

Retrieved 2020-11-26 00:27 UTC (3 hours ago):

TAF KRHI 252324Z 2600/2624 VRB03KT 4SM BR OVC004 FM260600 VRB02KT P6SM OVC006 TEMPO 2608/2612 3SM -DZ BR OVC002 FM261400 23007KT P6SM OVC012 FM261700 23009KT P6SM SCT015 BKN025 FM262100 24009KT P6SM BKN025